createdAt,value
2017-10-20T00:00:03.851Z,99.90
2017-10-20T00:01:07.147Z,99.90
2017-10-20T00:02:12.107Z,99.90
2017-10-20T00:03:16.140Z,99.90
2017-10-20T00:04:19.242Z,99.90
2017-10-20T00:05:22.528Z,99.90
2017-10-20T00:06:26.744Z,99.90
2017-10-20T00:07:29.925Z,99.90
2017-10-20T00:08:33.531Z,99.90
2017-10-20T00:09:37.416Z,99.90
2017-10-20T00:10:39.991Z,99.90
2017-10-20T00:11:44.309Z,99.90
2017-10-20T00:12:48.739Z,99.90
2017-10-20T00:13:52.505Z,99.90
2017-10-20T00:14:55.209Z,99.90
2017-10-20T00:15:58.557Z,99.90
2017-10-20T00:17:05.376Z,99.90
2017-10-20T00:18:07.992Z,99.90
2017-10-20T00:19:11.382Z,99.90
2017-10-20T00:20:14.452Z,99.90
2017-10-20T00:21:19.878Z,99.90
2017-10-20T00:22:22.474Z,99.90
2017-10-20T00:23:25.142Z,99.90
2017-10-20T00:24:28.530Z,99.90
2017-10-20T00:25:39.090Z,99.90
2017-10-20T00:26:42.783Z,99.90
2017-10-20T00:27:50.412Z,99.90
2017-10-20T00:28:54.863Z,99.90
2017-10-20T00:30:00.215Z,99.90
2017-10-20T00:31:04.230Z,99.90
2017-10-20T00:32:08.307Z,99.90
2017-10-20T00:33:12.323Z,99.90
2017-10-20T00:34:14.893Z,99.90
2017-10-20T00:35:17.559Z,99.90
2017-10-20T00:36:20.088Z,99.90
2017-10-20T00:37:23.109Z,99.90
2017-10-20T00:38:25.882Z,99.90
2017-10-20T00:39:31.377Z,99.90
2017-10-20T00:40:35.416Z,99.90
2017-10-20T00:41:38.602Z,99.90
2017-10-20T00:42:44.979Z,99.90
2017-10-20T00:43:49.071Z,99.90
2017-10-20T00:44:51.643Z,99.90
2017-10-20T00:45:54.151Z,99.90
2017-10-20T00:47:04.266Z,99.90
2017-10-20T00:48:07.241Z,99.90
2017-10-20T00:49:16.267Z,99.90
2017-10-20T00:50:23.328Z,99.90
2017-10-20T00:51:26.634Z,99.90
2017-10-20T00:52:29.332Z,99.90
2017-10-20T00:53:33.006Z,99.90
2017-10-20T00:54:37.586Z,99.90
2017-10-20T00:55:40.701Z,99.90
2017-10-20T00:56:47.981Z,99.90
2017-10-20T00:57:51.267Z,99.90
2017-10-20T00:58:54.969Z,99.90
2017-10-20T00:59:58.052Z,99.90
2017-10-20T01:01:00.879Z,99.90
2017-10-20T01:02:07.573Z,99.90
2017-10-20T01:03:12.329Z,99.90
2017-10-20T01:04:15.626Z,99.90
2017-10-20T01:05:19.578Z,99.90
2017-10-20T01:06:23.363Z,99.90
2017-10-20T01:07:27.541Z,99.90
2017-10-20T01:08:35.847Z,99.90
2017-10-20T01:09:38.415Z,99.90
2017-10-20T01:10:40.989Z,99.90
2017-10-20T01:11:49.504Z,99.90
2017-10-20T01:12:56.629Z,99.90
2017-10-20T01:13:59.145Z,99.90
2017-10-20T01:15:01.717Z,99.90
2017-10-20T01:16:04.750Z,99.90
2017-10-20T01:17:10.128Z,99.90
2017-10-20T01:18:14.093Z,99.90
2017-10-20T01:19:17.050Z,99.90
2017-10-20T01:20:19.582Z,99.90
2017-10-20T01:21:22.152Z,99.90
2017-10-20T01:22:24.931Z,99.90
2017-10-20T01:23:37.388Z,99.90
2017-10-20T01:24:41.374Z,99.90
2017-10-20T01:25:44.183Z,99.90
2017-10-20T01:26:47.999Z,99.90
2017-10-20T01:27:51.488Z,99.90
2017-10-20T01:28:54.016Z,99.90
2017-10-20T01:29:56.550Z,99.90
2017-10-20T01:30:59.992Z,99.90
2017-10-20T01:32:03.555Z,99.90
2017-10-20T01:33:08.236Z,99.90
2017-10-20T01:34:11.030Z,99.90
2017-10-20T01:35:14.719Z,99.90
2017-10-20T01:36:18.534Z,99.90
2017-10-20T01:37:21.458Z,99.90
2017-10-20T01:38:24.075Z,99.90
2017-10-20T01:39:28.816Z,99.90
2017-10-20T01:40:32.516Z,99.90
2017-10-20T01:41:35.563Z,99.90
2017-10-20T01:42:39.170Z,99.90
2017-10-20T01:43:43.629Z,99.90
2017-10-20T01:44:48.876Z,99.90
2017-10-20T01:45:52.552Z,99.90
2017-10-20T01:46:56.242Z,99.90
2017-10-20T01:47:58.800Z,99.90
2017-10-20T01:49:02.341Z,99.90
2017-10-20T01:50:04.954Z,99.90
2017-10-20T01:51:07.714Z,99.90
2017-10-20T01:52:15.095Z,99.90
2017-10-20T01:53:18.548Z,99.90
2017-10-20T01:54:21.149Z,99.90
2017-10-20T01:55:23.990Z,99.90
2017-10-20T01:56:27.102Z,99.90
2017-10-20T01:57:29.877Z,99.90
2017-10-20T01:58:32.990Z,99.90
2017-10-20T01:59:36.045Z,99.90
2017-10-20T02:00:39.535Z,99.90
2017-10-20T02:01:42.753Z,99.90
2017-10-20T02:02:45.281Z,99.90
2017-10-20T02:03:48.516Z,99.90
2017-10-20T02:04:51.273Z,99.90
2017-10-20T02:05:53.997Z,99.90
2017-10-20T02:06:56.735Z,99.90
2017-10-20T02:08:00.375Z,99.90
2017-10-20T02:09:03.606Z,99.90
2017-10-20T02:10:08.021Z,99.90
2017-10-20T02:11:11.956Z,99.90
2017-10-20T02:12:15.434Z,99.90
2017-10-20T02:13:20.193Z,99.90
2017-10-20T02:14:23.446Z,99.90
2017-10-20T02:15:26.055Z,99.90
2017-10-20T02:16:35.006Z,99.90
2017-10-20T02:17:37.570Z,99.90
2017-10-20T02:18:42.023Z,99.90
2017-10-20T02:19:46.156Z,99.90
2017-10-20T02:20:50.207Z,99.90
2017-10-20T02:21:52.728Z,99.90
2017-10-20T02:22:56.787Z,99.90
2017-10-20T02:24:00.910Z,99.90
2017-10-20T02:25:03.564Z,99.90
2017-10-20T02:26:08.406Z,99.90
2017-10-20T02:27:12.421Z,99.90
2017-10-20T02:28:16.343Z,99.90
2017-10-20T02:29:19.682Z,99.90
2017-10-20T02:30:22.333Z,99.90
2017-10-20T02:31:24.932Z,99.90
2017-10-20T02:32:29.141Z,99.90
2017-10-20T02:33:31.658Z,99.90
2017-10-20T02:34:34.184Z,99.90
2017-10-20T02:35:37.454Z,99.90
2017-10-20T02:36:40.940Z,99.90
2017-10-20T02:37:44.240Z,99.90
2017-10-20T02:38:46.920Z,99.90
2017-10-20T02:39:53.101Z,99.90
2017-10-20T02:40:57.482Z,99.90
2017-10-20T02:42:00.081Z,99.90
2017-10-20T02:43:11.940Z,99.90
2017-10-20T02:44:14.508Z,99.90
2017-10-20T02:45:34.088Z,99.90
2017-10-20T02:46:38.641Z,99.90
2017-10-20T02:47:42.335Z,99.90
2017-10-20T02:48:44.881Z,99.90
2017-10-20T02:49:49.312Z,99.90
2017-10-20T02:50:51.948Z,99.90
2017-10-20T02:51:56.228Z,99.90
2017-10-20T02:53:00.994Z,99.90
2017-10-20T02:54:04.444Z,99.90
2017-10-20T02:55:10.516Z,99.90
2017-10-20T02:56:14.437Z,99.90
2017-10-20T02:57:17.975Z,99.90
2017-10-20T02:58:21.563Z,99.90
2017-10-20T02:59:24.637Z,99.90
2017-10-20T03:00:28.024Z,99.90
2017-10-20T03:01:30.534Z,99.90
2017-10-20T03:02:34.186Z,99.90
2017-10-20T03:03:37.040Z,99.90
2017-10-20T03:04:41.067Z,99.90
2017-10-20T03:05:43.632Z,99.90
2017-10-20T03:06:47.431Z,99.90
2017-10-20T03:07:52.091Z,99.90
2017-10-20T03:08:55.060Z,99.90
2017-10-20T03:09:57.771Z,99.90
2017-10-20T03:11:01.092Z,99.90
2017-10-20T03:12:03.654Z,99.90
2017-10-20T03:13:07.994Z,99.90
2017-10-20T03:14:11.860Z,99.90
2017-10-20T03:15:16.333Z,99.90
2017-10-20T03:16:18.843Z,99.90
2017-10-20T03:17:22.925Z,99.90
2017-10-20T03:18:25.724Z,99.90
2017-10-20T03:19:28.537Z,99.90
2017-10-20T03:20:31.076Z,99.90
2017-10-20T03:21:33.633Z,99.90
2017-10-20T03:22:38.820Z,99.90
2017-10-20T03:23:42.145Z,99.90
2017-10-20T03:24:44.719Z,99.90
2017-10-20T03:25:47.280Z,99.90
2017-10-20T03:26:51.996Z,99.90
2017-10-20T03:27:54.569Z,99.90
2017-10-20T03:28:57.130Z,99.90
2017-10-20T03:30:01.643Z,99.90
2017-10-20T03:31:04.875Z,99.90
2017-10-20T03:32:09.505Z,99.90
2017-10-20T03:33:12.830Z,99.90
2017-10-20T03:34:15.918Z,99.90
2017-10-20T03:35:20.001Z,99.90
2017-10-20T03:36:23.507Z,99.90
2017-10-20T03:37:31.396Z,99.90
2017-10-20T03:38:34.700Z,99.90
2017-10-20T03:39:37.289Z,99.90
2017-10-20T03:40:39.824Z,99.90
2017-10-20T03:41:42.638Z,99.90
2017-10-20T03:42:46.701Z,99.90
2017-10-20T03:43:52.635Z,99.90
2017-10-20T03:44:57.480Z,99.90
2017-10-20T03:46:00.167Z,99.90
2017-10-20T03:47:03.158Z,99.90
2017-10-20T03:48:07.757Z,99.90
2017-10-20T03:49:12.478Z,99.90
2017-10-20T03:50:18.185Z,99.90
2017-10-20T03:51:21.580Z,99.90
2017-10-20T03:52:24.924Z,99.90
2017-10-20T03:53:30.989Z,99.90
2017-10-20T03:54:34.434Z,99.90
2017-10-20T03:55:37.096Z,99.90
2017-10-20T03:56:44.373Z,99.90
2017-10-20T03:57:47.453Z,99.90
2017-10-20T03:58:50.236Z,99.90
2017-10-20T03:59:53.303Z,99.90
2017-10-20T04:00:57.003Z,99.90
2017-10-20T04:02:00.768Z,99.90
2017-10-20T04:03:04.190Z,99.90
2017-10-20T04:04:06.937Z,99.90
2017-10-20T04:05:16.157Z,99.90
2017-10-20T04:06:21.107Z,99.90
2017-10-20T04:07:25.669Z,99.90
2017-10-20T04:08:28.193Z,99.90
2017-10-20T04:09:33.460Z,99.90
2017-10-20T04:10:50.111Z,99.90
2017-10-20T04:11:53.364Z,99.90
2017-10-20T04:12:58.085Z,99.90
2017-10-20T04:14:00.587Z,99.90
2017-10-20T04:15:03.963Z,99.90
2017-10-20T04:16:07.574Z,99.90
2017-10-20T04:17:12.439Z,99.90
2017-10-20T04:18:15.005Z,99.90
2017-10-20T04:19:18.998Z,99.90
2017-10-20T04:20:21.558Z,99.90
2017-10-20T04:21:24.175Z,99.90
2017-10-20T04:22:26.818Z,99.90
2017-10-20T04:23:29.411Z,99.90
2017-10-20T04:24:31.970Z,99.90
2017-10-20T04:25:34.551Z,99.90
2017-10-20T04:26:37.110Z,99.90
2017-10-20T04:27:40.804Z,99.90
2017-10-20T04:28:43.848Z,99.90
2017-10-20T04:29:46.459Z,99.90
2017-10-20T04:30:50.899Z,99.90
2017-10-20T04:31:59.140Z,99.90
2017-10-20T04:33:02.383Z,99.90
2017-10-20T04:34:04.967Z,99.90
2017-10-20T04:35:09.453Z,99.90
2017-10-20T04:36:14.586Z,99.90
2017-10-20T04:37:26.614Z,99.90
2017-10-20T04:38:31.039Z,99.90
2017-10-20T04:39:34.292Z,99.90
2017-10-20T04:40:37.113Z,99.90
2017-10-20T04:41:40.689Z,99.90
2017-10-20T04:42:44.601Z,99.90
2017-10-20T04:43:48.575Z,99.90
2017-10-20T04:44:56.741Z,99.90
2017-10-20T04:46:02.338Z,99.90
2017-10-20T04:47:04.844Z,99.90
2017-10-20T04:48:07.325Z,99.90
2017-10-20T04:49:10.374Z,99.90
2017-10-20T04:50:12.911Z,99.90
2017-10-20T04:51:15.467Z,99.90
2017-10-20T04:52:18.044Z,99.90
2017-10-20T04:53:20.617Z,99.90
2017-10-20T04:54:23.125Z,99.90
2017-10-20T04:55:25.835Z,99.90
2017-10-20T04:56:30.116Z,99.90
2017-10-20T04:57:32.623Z,99.90
2017-10-20T04:58:35.290Z,99.90
2017-10-20T04:59:38.857Z,99.90
2017-10-20T05:00:42.892Z,99.90
2017-10-20T05:01:47.503Z,99.90
2017-10-20T05:02:50.208Z,99.90
2017-10-20T05:03:53.796Z,99.90
2017-10-20T05:04:57.288Z,99.90
2017-10-20T05:05:59.897Z,99.90
2017-10-20T05:07:03.132Z,99.90
2017-10-20T05:08:05.664Z,99.90
2017-10-20T05:09:08.213Z,99.90
2017-10-20T05:10:12.439Z,99.90
2017-10-20T05:11:16.112Z,99.90
2017-10-20T05:12:21.566Z,99.90
2017-10-20T05:13:25.154Z,99.90
2017-10-20T05:14:27.724Z,99.90
2017-10-20T05:15:30.289Z,99.90
2017-10-20T05:16:33.025Z,99.90
2017-10-20T05:17:38.565Z,99.90
2017-10-20T05:18:41.989Z,99.90
2017-10-20T05:19:45.984Z,99.90
2017-10-20T05:20:48.552Z,99.90
2017-10-20T05:21:51.119Z,99.90
2017-10-20T05:22:53.596Z,99.90
2017-10-20T05:23:56.187Z,99.90
2017-10-20T05:24:58.671Z,99.90
2017-10-20T05:26:01.497Z,99.90
2017-10-20T05:27:03.996Z,99.90
2017-10-20T05:28:06.523Z,99.90
2017-10-20T05:29:09.291Z,99.90
2017-10-20T05:30:11.808Z,99.90
2017-10-20T05:31:14.316Z,99.90
2017-10-20T05:32:17.537Z,99.90
2017-10-20T05:33:20.033Z,99.90
2017-10-20T05:34:23.358Z,99.90
2017-10-20T05:35:26.765Z,99.90
2017-10-20T05:36:30.142Z,99.90
2017-10-20T05:37:32.695Z,99.90
2017-10-20T05:38:35.300Z,99.90
2017-10-20T05:39:37.788Z,99.90
2017-10-20T05:40:41.047Z,99.90
2017-10-20T05:41:43.580Z,99.90
2017-10-20T05:42:46.435Z,99.90
2017-10-20T05:43:49.020Z,99.90
2017-10-20T05:44:51.490Z,99.90
2017-10-20T05:45:54.002Z,99.90
2017-10-20T05:46:56.532Z,99.90
2017-10-20T05:47:59.286Z,99.90
2017-10-20T05:49:01.776Z,99.90
2017-10-20T05:50:10.985Z,99.90
2017-10-20T05:51:13.478Z,99.90
2017-10-20T05:52:15.998Z,99.90
2017-10-20T05:53:19.299Z,99.90
2017-10-20T05:54:21.888Z,99.90
2017-10-20T05:55:24.378Z,99.90
2017-10-20T05:56:26.870Z,99.90
2017-10-20T05:57:31.355Z,99.90
2017-10-20T05:58:34.850Z,99.90
2017-10-20T05:59:37.359Z,99.90
2017-10-20T06:00:39.840Z,99.90
2017-10-20T06:01:42.316Z,99.90
2017-10-20T06:02:49.451Z,99.90
2017-10-20T06:03:51.955Z,99.90
2017-10-20T06:04:54.531Z,99.90
2017-10-20T06:05:57.015Z,99.90
2017-10-20T06:07:06.421Z,99.90
2017-10-20T06:08:08.908Z,99.90
2017-10-20T06:09:11.405Z,99.90
2017-10-20T06:10:13.938Z,99.90
2017-10-20T06:11:20.444Z,99.90
2017-10-20T06:12:22.935Z,99.90
2017-10-20T06:13:25.447Z,99.90
2017-10-20T06:14:28.732Z,99.90
2017-10-20T06:15:33.105Z,99.90
2017-10-20T06:16:35.607Z,99.90
2017-10-20T06:17:40.680Z,99.90
2017-10-20T06:18:43.260Z,99.90
2017-10-20T06:19:46.629Z,99.90
2017-10-20T06:20:49.185Z,99.90
2017-10-20T06:21:51.770Z,99.90
2017-10-20T06:22:54.490Z,99.90
2017-10-20T06:23:58.063Z,99.90
2017-10-20T06:25:02.992Z,99.90
2017-10-20T06:26:06.360Z,99.90
2017-10-20T06:27:09.693Z,99.90
2017-10-20T06:28:12.182Z,99.90
2017-10-20T06:29:14.731Z,99.90
2017-10-20T06:30:17.224Z,99.90
2017-10-20T06:31:21.723Z,99.90
2017-10-20T06:32:24.553Z,99.90
2017-10-20T06:33:27.819Z,99.90
2017-10-20T06:34:30.380Z,99.90
2017-10-20T06:35:32.871Z,99.90
2017-10-20T06:36:38.860Z,99.90
2017-10-20T06:37:42.188Z,99.90
2017-10-20T06:38:44.853Z,99.90
2017-10-20T06:39:47.335Z,99.90
2017-10-20T06:40:50.651Z,99.90
2017-10-20T06:41:53.131Z,99.90
2017-10-20T06:42:55.838Z,99.90
2017-10-20T06:43:58.324Z,99.90
2017-10-20T06:45:01.832Z,99.90
2017-10-20T06:46:05.210Z,99.90
2017-10-20T06:47:07.722Z,99.90
2017-10-20T06:48:10.253Z,99.90
2017-10-20T06:49:12.988Z,99.90
2017-10-20T06:50:16.310Z,99.90
2017-10-20T06:51:18.811Z,99.90
2017-10-20T06:52:21.282Z,99.90
2017-10-20T06:53:23.786Z,99.90
2017-10-20T06:54:27.296Z,99.90
2017-10-20T06:55:30.059Z,99.90
2017-10-20T06:56:33.327Z,99.90
2017-10-20T06:57:36.584Z,99.90
2017-10-20T06:58:39.128Z,99.90
2017-10-20T06:59:41.935Z,99.90
2017-10-20T07:00:46.366Z,99.90
2017-10-20T07:01:48.983Z,99.90
2017-10-20T07:02:51.598Z,99.90
2017-10-20T07:03:54.178Z,99.90
2017-10-20T07:04:56.667Z,99.90
2017-10-20T07:05:59.312Z,99.90
2017-10-20T07:07:01.803Z,99.90
2017-10-20T07:08:05.336Z,99.90
2017-10-20T07:09:08.753Z,99.90
2017-10-20T07:10:11.604Z,99.90
2017-10-20T07:11:14.871Z,99.90
2017-10-20T07:12:17.379Z,99.90
2017-10-20T07:13:20.034Z,99.90
2017-10-20T07:14:23.311Z,99.90
2017-10-20T07:15:29.173Z,99.90
2017-10-20T07:16:32.004Z,99.90
2017-10-20T07:17:36.722Z,99.90
2017-10-20T07:20:14.924Z,99.90
2017-10-20T07:21:20.443Z,99.90
2017-10-20T07:22:23.044Z,99.90
2017-10-20T07:23:25.715Z,99.90
2017-10-20T07:24:28.992Z,99.90
2017-10-20T07:25:31.710Z,99.90
2017-10-20T07:26:34.189Z,99.90
2017-10-20T07:27:36.691Z,99.90
2017-10-20T07:28:39.203Z,99.90
2017-10-20T07:29:43.376Z,99.90
2017-10-20T07:30:52.724Z,99.90
2017-10-20T07:31:55.398Z,99.90
2017-10-20T07:32:58.403Z,99.90
2017-10-20T07:34:00.941Z,99.90
2017-10-20T07:35:03.461Z,99.90
2017-10-20T07:36:05.989Z,99.90
2017-10-20T07:37:08.484Z,99.90
2017-10-20T07:38:12.574Z,99.90
2017-10-20T07:39:16.363Z,99.90
2017-10-20T07:40:18.900Z,99.90
2017-10-20T07:41:21.990Z,99.90
2017-10-20T07:42:24.641Z,99.90
2017-10-20T07:43:27.214Z,99.90
2017-10-20T07:44:29.745Z,99.90
2017-10-20T07:45:32.853Z,99.90
2017-10-20T07:46:35.373Z,99.90
2017-10-20T07:47:37.979Z,99.90
2017-10-20T07:48:41.276Z,99.90
2017-10-20T07:49:43.853Z,99.90
2017-10-20T07:50:46.360Z,99.90
2017-10-20T07:51:48.879Z,99.90
2017-10-20T07:52:51.370Z,99.90
2017-10-20T07:53:56.011Z,99.90
2017-10-20T07:54:58.511Z,99.90
2017-10-20T07:56:01.747Z,99.90
2017-10-20T07:57:05.395Z,99.90
2017-10-20T07:58:07.859Z,99.90
2017-10-20T07:59:10.840Z,99.90
2017-10-20T08:00:13.336Z,99.90
2017-10-20T08:01:16.144Z,99.90
2017-10-20T08:02:18.644Z,99.90
2017-10-20T08:03:23.358Z,99.90
2017-10-20T08:04:26.467Z,99.90
2017-10-20T08:05:28.976Z,99.90
2017-10-20T08:06:36.426Z,99.90
2017-10-20T08:07:38.960Z,99.90
2017-10-20T08:08:41.520Z,99.90
2017-10-20T08:09:44.042Z,99.90
2017-10-20T08:10:46.652Z,99.90
2017-10-20T08:11:49.182Z,99.90
2017-10-20T08:12:51.675Z,99.90
2017-10-20T08:13:54.241Z,99.90
2017-10-20T08:14:56.741Z,99.90
2017-10-20T08:15:59.242Z,99.90
2017-10-20T08:17:02.577Z,99.90
2017-10-20T08:18:05.411Z,99.90
2017-10-20T08:19:08.727Z,99.90
2017-10-20T08:20:11.293Z,99.90
2017-10-20T08:21:13.864Z,99.90
2017-10-20T08:22:19.114Z,99.90
2017-10-20T08:23:21.616Z,99.90
2017-10-20T08:24:26.856Z,99.90
2017-10-20T08:25:29.366Z,99.90
2017-10-20T08:26:31.916Z,99.90
2017-10-20T08:27:34.545Z,99.90
2017-10-20T08:28:37.521Z,99.90
2017-10-20T08:29:40.027Z,99.90
2017-10-20T08:30:42.820Z,99.90
2017-10-20T08:31:45.364Z,99.90
2017-10-20T08:32:47.932Z,99.90
2017-10-20T08:33:50.429Z,99.90
2017-10-20T08:34:53.102Z,99.90
2017-10-20T08:35:55.616Z,99.90
2017-10-20T08:38:12.616Z,99.90
2017-10-20T08:39:15.880Z,99.90
2017-10-20T08:40:19.228Z,99.90
2017-10-20T08:41:21.721Z,99.90
2017-10-20T08:42:24.249Z,99.90
2017-10-20T08:43:26.808Z,99.90
2017-10-20T08:44:29.383Z,99.90
2017-10-20T08:45:31.884Z,99.90
2017-10-20T08:46:34.820Z,99.90
2017-10-20T08:47:37.515Z,99.90
2017-10-20T08:48:40.041Z,99.90
2017-10-20T08:49:43.368Z,99.90
2017-10-20T08:50:46.505Z,99.90
2017-10-20T08:51:52.213Z,99.90
2017-10-20T08:52:54.698Z,99.90
2017-10-20T08:53:58.045Z,99.90
2017-10-20T08:55:00.546Z,99.90
2017-10-20T08:56:03.852Z,99.90
2017-10-20T08:57:17.486Z,99.90
2017-10-20T08:58:19.976Z,99.90
2017-10-20T08:59:22.495Z,99.90
2017-10-20T09:00:25.760Z,99.90
2017-10-20T09:01:28.291Z,99.90
2017-10-20T09:02:31.008Z,99.90
2017-10-20T09:03:34.374Z,99.90
2017-10-20T09:04:36.860Z,99.90
2017-10-20T09:05:40.995Z,99.90
2017-10-20T09:06:43.478Z,99.90
2017-10-20T09:07:45.987Z,99.90
2017-10-20T09:08:48.593Z,99.90
2017-10-20T09:09:51.182Z,99.90
2017-10-20T09:10:53.673Z,99.90
2017-10-20T09:11:57.168Z,99.90
2017-10-20T09:13:02.686Z,99.90
2017-10-20T09:14:05.205Z,99.90
2017-10-20T09:15:07.698Z,99.90
2017-10-20T09:16:11.207Z,99.90
2017-10-20T09:17:13.814Z,99.90
2017-10-20T09:18:17.089Z,99.90
2017-10-20T09:19:19.599Z,99.90
2017-10-20T09:20:22.096Z,99.90
2017-10-20T09:21:24.615Z,99.90
2017-10-20T09:22:27.147Z,99.90
2017-10-20T09:23:30.609Z,99.90
2017-10-20T09:24:33.142Z,99.90
2017-10-20T09:25:37.868Z,99.90
2017-10-20T09:26:40.424Z,99.90
2017-10-20T09:27:42.915Z,99.90
2017-10-20T09:28:45.982Z,99.90
2017-10-20T09:29:48.496Z,99.90
2017-10-20T09:30:52.772Z,99.90
2017-10-20T09:31:56.449Z,99.90
2017-10-20T09:32:58.947Z,99.90
2017-10-20T09:34:01.430Z,99.90
2017-10-20T09:35:04.679Z,99.90
2017-10-20T09:36:07.928Z,99.90
2017-10-20T09:37:11.214Z,99.90
2017-10-20T09:38:14.186Z,99.90
2017-10-20T09:39:16.669Z,99.90
2017-10-20T09:40:19.195Z,99.90
2017-10-20T09:41:24.426Z,99.90
2017-10-20T09:42:27.749Z,99.90
2017-10-20T09:43:30.239Z,99.90
2017-10-20T09:44:32.775Z,99.90
2017-10-20T09:45:35.289Z,99.90
2017-10-20T09:46:40.523Z,99.90
2017-10-20T09:47:43.791Z,99.90
2017-10-20T09:48:46.358Z,99.90
2017-10-20T09:49:48.834Z,99.90
2017-10-20T09:50:51.321Z,99.90
2017-10-20T09:51:55.032Z,99.90
2017-10-20T09:52:57.549Z,99.90
2017-10-20T09:54:00.870Z,99.90
2017-10-20T09:55:04.137Z,99.90
2017-10-20T09:56:07.382Z,99.90
2017-10-20T09:57:10.639Z,99.90
2017-10-20T09:58:13.128Z,99.90
2017-10-20T09:59:15.637Z,99.90
2017-10-20T10:00:18.912Z,99.90
2017-10-20T10:01:22.205Z,99.90
2017-10-20T10:02:25.555Z,99.90
2017-10-20T10:03:32.180Z,99.90
2017-10-20T10:04:35.593Z,99.90
2017-10-20T10:05:39.071Z,99.90
2017-10-20T10:06:41.579Z,99.90
2017-10-20T10:07:44.089Z,99.90
2017-10-20T10:08:46.601Z,99.90
2017-10-20T10:09:49.235Z,99.90
2017-10-20T10:10:51.762Z,99.90
2017-10-20T10:11:55.047Z,99.90
2017-10-20T10:12:58.304Z,99.90
2017-10-20T10:14:00.799Z,99.90
2017-10-20T10:15:06.102Z,99.90
2017-10-20T10:16:10.763Z,99.90
2017-10-20T10:17:13.269Z,99.90
2017-10-20T10:18:15.795Z,99.90
2017-10-20T10:19:18.294Z,99.90
2017-10-20T10:20:20.796Z,99.90
2017-10-20T10:21:23.310Z,99.90
2017-10-20T10:22:27.041Z,99.90
2017-10-20T10:23:29.528Z,99.90
2017-10-20T10:24:32.846Z,99.90
2017-10-20T10:25:35.411Z,99.90
2017-10-20T10:26:39.239Z,99.90
2017-10-20T10:27:41.746Z,99.90
2017-10-20T10:28:45.606Z,99.90
2017-10-20T10:29:48.094Z,99.90
2017-10-20T10:30:50.614Z,99.90
2017-10-20T10:31:53.087Z,99.90
2017-10-20T10:32:55.589Z,99.90
2017-10-20T10:33:58.077Z,99.90
2017-10-20T10:35:02.311Z,99.90
2017-10-20T10:36:04.803Z,99.90
2017-10-20T10:37:07.337Z,99.90
2017-10-20T10:38:09.893Z,99.90
2017-10-20T10:39:12.381Z,99.90
2017-10-20T10:40:14.904Z,99.90
2017-10-20T10:41:18.163Z,99.90
2017-10-20T10:42:21.224Z,99.90
2017-10-20T10:43:23.817Z,99.90
2017-10-20T10:44:26.295Z,99.90
2017-10-20T10:45:29.569Z,99.90
2017-10-20T10:46:36.758Z,99.90
2017-10-20T10:47:40.115Z,99.90
2017-10-20T10:48:42.732Z,99.90
2017-10-20T10:49:45.231Z,99.90
2017-10-20T10:50:47.764Z,99.90
2017-10-20T10:51:50.237Z,99.90
2017-10-20T10:52:52.973Z,99.90
2017-10-20T10:53:56.223Z,99.90
2017-10-20T10:54:58.736Z,99.90
2017-10-20T10:56:02.002Z,99.90
2017-10-20T10:57:05.280Z,99.90
2017-10-20T10:58:08.576Z,99.90
2017-10-20T10:59:11.927Z,99.90
2017-10-20T11:00:14.865Z,99.90
2017-10-20T11:01:17.640Z,99.90
2017-10-20T11:02:20.835Z,99.90
2017-10-20T11:03:23.316Z,99.90
2017-10-20T11:04:25.839Z,99.90
2017-10-20T11:05:40.312Z,99.90
2017-10-20T11:06:55.039Z,99.90
2017-10-20T11:08:09.395Z,99.90
2017-10-20T11:09:17.812Z,99.90
2017-10-20T11:10:32.137Z,99.90
2017-10-20T11:11:47.503Z,99.90
2017-10-20T11:13:06.775Z,99.90
2017-10-20T11:14:09.271Z,99.90
2017-10-20T11:15:12.811Z,99.90
2017-10-20T11:16:15.300Z,99.90
2017-10-20T11:17:17.840Z,99.90
2017-10-20T11:18:23.901Z,99.90
2017-10-20T11:19:26.627Z,99.90
2017-10-20T11:20:30.086Z,99.90
2017-10-20T11:21:32.780Z,99.90
2017-10-20T11:22:35.471Z,99.90
2017-10-20T11:23:39.500Z,99.90
2017-10-20T11:24:42.616Z,99.90
2017-10-20T11:25:45.110Z,99.90
2017-10-20T11:26:48.432Z,99.90
2017-10-20T11:27:51.964Z,99.90
2017-10-20T11:28:55.223Z,99.90
2017-10-20T11:29:57.706Z,99.90
2017-10-20T11:31:02.271Z,99.90
2017-10-20T11:32:04.842Z,99.90
2017-10-20T11:33:07.814Z,99.90
2017-10-20T11:34:11.452Z,99.90
2017-10-20T11:35:13.933Z,99.90
2017-10-20T11:36:16.675Z,99.90
2017-10-20T11:37:19.172Z,99.90
2017-10-20T11:38:23.246Z,99.90
2017-10-20T11:39:25.751Z,99.90
2017-10-20T11:40:29.036Z,99.90
2017-10-20T11:41:32.498Z,99.90
2017-10-20T11:42:35.044Z,99.90
2017-10-20T11:43:37.987Z,99.90
2017-10-20T11:44:41.540Z,99.90
2017-10-20T11:45:44.107Z,99.90
2017-10-20T11:46:49.945Z,99.90
2017-10-20T11:47:53.247Z,99.90
2017-10-20T11:48:58.544Z,99.90
2017-10-20T11:50:03.408Z,99.90
2017-10-20T11:51:07.810Z,99.90
2017-10-20T11:52:13.776Z,99.90
2017-10-20T11:53:16.272Z,99.90
2017-10-20T11:54:19.003Z,99.90
2017-10-20T11:55:22.600Z,99.90
2017-10-20T11:56:25.241Z,99.90
2017-10-20T11:57:28.536Z,99.90
2017-10-20T11:58:31.832Z,99.90
2017-10-20T11:59:35.702Z,99.90
2017-10-20T12:00:38.345Z,99.90
2017-10-20T12:01:41.345Z,99.90
2017-10-20T12:02:43.858Z,99.90
2017-10-20T12:03:47.162Z,99.90
2017-10-20T12:04:50.890Z,99.90
2017-10-20T12:05:53.383Z,99.90
2017-10-20T12:06:56.443Z,99.90
2017-10-20T12:07:59.711Z,99.90
2017-10-20T12:09:02.471Z,99.90
2017-10-20T12:10:04.966Z,99.90
2017-10-20T12:11:07.467Z,99.90
2017-10-20T12:12:11.151Z,99.90
2017-10-20T12:13:13.782Z,99.90
2017-10-20T12:14:16.909Z,99.90
2017-10-20T12:15:19.471Z,99.90
2017-10-20T12:16:22.798Z,99.90
2017-10-20T12:17:25.475Z,99.90
2017-10-20T12:18:28.018Z,99.90
2017-10-20T12:19:31.832Z,99.90
2017-10-20T12:20:34.538Z,99.90
2017-10-20T12:21:38.918Z,99.90
2017-10-20T12:22:42.196Z,99.90
2017-10-20T12:23:44.813Z,99.90
2017-10-20T12:24:47.643Z,99.90
2017-10-20T12:25:51.956Z,99.90
2017-10-20T12:26:54.480Z,99.90
2017-10-20T12:27:56.986Z,99.90
2017-10-20T12:29:02.088Z,99.90
2017-10-20T12:30:04.594Z,99.90
2017-10-20T12:31:07.904Z,99.90
2017-10-20T12:32:10.458Z,99.90
2017-10-20T12:33:13.710Z,99.90
2017-10-20T12:34:16.322Z,99.90
2017-10-20T12:35:20.785Z,99.90
2017-10-20T12:36:23.316Z,99.90
2017-10-20T12:37:31.923Z,99.90
2017-10-20T12:38:37.586Z,99.90
2017-10-20T12:39:40.118Z,99.90
2017-10-20T12:40:43.919Z,99.90
2017-10-20T12:41:46.411Z,99.90
2017-10-20T12:42:48.920Z,99.90
2017-10-20T12:43:52.175Z,99.90
2017-10-20T12:44:59.195Z,99.90
2017-10-20T12:46:01.694Z,99.90
2017-10-20T12:47:04.215Z,99.90
2017-10-20T12:48:07.497Z,99.90
2017-10-20T12:49:10.081Z,99.90
2017-10-20T12:50:12.608Z,99.90
2017-10-20T12:51:15.662Z,99.90
2017-10-20T12:52:18.159Z,99.90
2017-10-20T12:53:21.745Z,99.90
2017-10-20T12:54:24.348Z,99.90
2017-10-20T12:55:26.910Z,99.60
2017-10-20T12:56:29.435Z,99.90
2017-10-20T12:57:32.038Z,99.30
2017-10-20T12:58:35.321Z,98.10
2017-10-20T12:59:38.589Z,99.80
2017-10-20T13:00:41.861Z,99.10
2017-10-20T13:01:44.452Z,99.20
2017-10-20T13:02:47.907Z,99.40
2017-10-20T13:03:50.412Z,99.50
2017-10-20T13:04:58.000Z,99.90
2017-10-20T13:06:00.508Z,99.80
2017-10-20T13:07:03.057Z,98.90
2017-10-20T13:08:06.294Z,97.00
2017-10-20T13:09:09.657Z,98.60
2017-10-20T13:10:12.267Z,98.60
2017-10-20T13:11:15.121Z,97.30
2017-10-20T13:12:22.956Z,98.40
2017-10-20T13:13:26.526Z,98.50
2017-10-20T13:14:29.753Z,97.10
2017-10-20T13:15:32.381Z,96.20
2017-10-20T13:16:34.911Z,96.80
2017-10-20T13:17:39.228Z,96.30
2017-10-20T13:18:42.628Z,97.50
2017-10-20T13:19:45.408Z,97.50
2017-10-20T13:20:49.790Z,97.60
2017-10-20T13:21:52.659Z,97.90
2017-10-20T13:22:55.200Z,98.80
2017-10-20T13:23:59.758Z,98.50
2017-10-20T13:25:03.035Z,96.40
2017-10-20T13:26:06.537Z,97.20
2017-10-20T13:27:09.060Z,97.30
2017-10-20T13:28:11.570Z,97.60
2017-10-20T13:29:14.125Z,98.20
2017-10-20T13:30:17.411Z,99.40
2017-10-20T13:31:20.672Z,98.60
2017-10-20T13:32:23.287Z,98.60
2017-10-20T13:33:25.818Z,96.30
2017-10-20T13:34:29.698Z,98.30
2017-10-20T13:35:33.047Z,98.10
2017-10-20T13:36:35.582Z,97.10
2017-10-20T13:37:38.147Z,97.60
2017-10-20T13:38:41.068Z,97.60
2017-10-20T13:39:43.658Z,99.10
2017-10-20T13:40:47.396Z,97.50